Siteam Jupiter — A8JA6 — position and weather

sailwx.info

Track history (hours):
 
Tides and Currents Weather Stations Pressure Air Temp Water Temp Dewpoint Dewpoint Depression Visibility Wind Speed Wind Dir Waves Ship Positions

Siteam Jupiter

Last reported at 2014-Sep-16 10:33 UTC. Time now 2014-Sep-16 11:34 UTC.
Position N 26°28' W 079°44'.

Length 181 m; draft 8.3 m.

Type: Ship (hazmat cat B). MMSI: 636091062.

Date/timePositionNaut miles runAvg speedWind from/ knotsBaromVisibWave heightAir tempDewpointWater temp
2014-Sep-16 10:33N 26°28' W 079°44'9 8.9
2014-Sep-16 09:33N 26°37' W 079°42'9 9.0
2014-Sep-16 08:33N 26°46' W 079°40'21 9.3
2014-Sep-16 06:17N 27°07' W 079°36'  
2014-Sep-13 07:26N 39°24' W 073°50'1213.2
2014-Sep-13 06:32N 39°36' W 073°49'1313.0
2014-Sep-13 05:33N 39°49' W 073°49'1313.1
2014-Sep-13 04:33N 40°02' W 073°49'1313.0
2014-Sep-13 03:33N 40°15' W 073°49'1212.1
2014-Sep-13 02:33N 40°27' W 073°50'1110.9
2014-Sep-13 01:34N 40°33' W 074°02'5 4.7
2014-Sep-13 00:31N 40°38' W 074°04'0 0.1
2014-Sep-12 23:25N 40°38' W 074°04'0 0.0
2014-Sep-12 22:31N 40°38' W 074°04'0 0.0
2014-Sep-12 21:31N 40°38' W 074°04'0 0.0
2014-Sep-12 20:28N 40°38' W 074°04'0 0.0
2014-Sep-12 19:31N 40°38' W 074°04'0 0.0
2014-Sep-12 18:31N 40°38' W 074°04'4 4.3
2014-Sep-12 17:33N 40°34' W 074°02'7 6.6
2014-Sep-12 16:33N 40°30' W 074°09'5 4.9
2014-Sep-12 15:29N 40°32' W 074°15'0 0.0
2014-Sep-12 00:19N 40°33' W 074°15'3 3.7
2014-Sep-11 23:30N 40°30' W 074°15'9 9.4
2014-Sep-11 22:31N 40°29' W 074°03'12 9.4
2014-Sep-11 21:18N 40°27' W 073°48'7 8.9
2014-Sep-11 20:31N 40°20' W 073°46'1513.4
2014-Sep-11 19:24N 40°05' W 073°44'1213.2
2014-Sep-11 18:30N 39°53' W 073°42'1213.1
2014-Sep-11 17:33N 39°41' W 073°40'1313.2
2014-Sep-11 16:33N 39°28' W 073°40'1313.2
2014-Sep-11 15:33N 39°14' W 073°40'1313.5
2014-Sep-11 14:33N 39°01' W 073°40'1313.3
2014-Sep-11 13:33N 38°48' W 073°40'1313.0
2014-Sep-11 12:33N 38°35' W 073°40'1313.3
2014-Sep-11 11:33N 38°21' W 073°40'1313.3
2014-Sep-11 10:33N 38°08' W 073°40'1313.0
2014-Sep-11 09:33N 37°55' W 073°40'1312.7
2014-Sep-11 08:32N 37°42' W 073°40'49511.8
2014-Sep-09 14:33N 32°05' W 081°03'5 4.5
2014-Sep-09 13:27N 32°07' W 081°08'0 0.0
2014-Sep-09 12:33N 32°07' W 081°08'0 0.0
2014-Sep-09 11:30N 32°07' W 081°08'0 0.0
2014-Sep-09 09:12N 32°07' W 081°08'0 0.0
2014-Sep-09 08:30N 32°07' W 081°08'0 0.0
2014-Sep-09 07:30N 32°07' W 081°08'0 0.0
2014-Sep-09 06:33N 32°07' W 081°08'0 0.0
2014-Sep-09 05:30N 32°07' W 081°08'0 0.0
2014-Sep-09 04:33N 32°07' W 081°08'0 0.0
2014-Sep-09 03:33N 32°07' W 081°08'0 0.0
2014-Sep-09 02:33N 32°07' W 081°08'0 0.0
2014-Sep-09 01:33N 32°07' W 081°08'0 0.0
2014-Sep-09 00:30N 32°07' W 081°08'0 0.0
2014-Sep-08 23:15N 32°07' W 081°08'0 0.0
2014-Sep-08 22:12N 32°07' W 081°08'0 0.0
2014-Sep-08 21:24N 32°07' W 081°08'0 0.0
2014-Sep-08 20:33N 32°07' W 081°08'0 0.0
2014-Sep-08 19:30N 32°07' W 081°08'0 0.0
2014-Sep-08 18:33N 32°07' W 081°08'0 0.0
2014-Sep-08 17:33N 32°07' W 081°08'0 0.0
2014-Sep-08 16:33N 32°07' W 081°08'0 0.0
2014-Sep-08 15:33N 32°07' W 081°08'0 0.0
2014-Sep-08 11:27N 32°07' W 081°08'0 0.0
2014-Sep-08 09:33N 32°07' W 081°08'0 0.0
2014-Sep-08 08:33N 32°07' W 081°08'0 0.0
2014-Sep-08 07:33N 32°07' W 081°08'0 0.0
2014-Sep-08 06:33N 32°07' W 081°08'0 0.0
2014-Sep-08 05:30N 32°07' W 081°08'0 0.0
2014-Sep-08 04:30N 32°07' W 081°08'0 0.0
2014-Sep-08 03:30N 32°07' W 081°08'0 0.0
2014-Sep-08 02:33N 32°07' W 081°08'0 0.0
2014-Sep-08 01:30N 32°07' W 081°08'0 0.0
2014-Sep-08 00:33N 32°07' W 081°08'0 0.0
2014-Sep-07 23:27N 32°07' W 081°08'0 0.0
2014-Sep-07 21:33N 32°07' W 081°08'0 0.0
2014-Sep-07 19:27N 32°07' W 081°08'0 0.0
2014-Sep-07 18:27N 32°07' W 081°08'0 0.0
2014-Sep-07 17:33N 32°07' W 081°08'0 0.0
2014-Sep-07 16:30N 32°07' W 081°08'0 0.0
2014-Sep-07 15:33N 32°07' W 081°08'0 0.0
2014-Sep-07 14:30N 32°07' W 081°08'0 0.0
2014-Sep-07 13:33N 32°07' W 081°08'0 0.0
2014-Sep-07 11:33N 32°07' W 081°08'0 0.0
2014-Sep-07 10:09N 32°07' W 081°08'0 0.0
2014-Sep-07 09:33N 32°07' W 081°08'0 0.0
2014-Sep-07 07:32N 32°07' W 081°08'4 4.0
2014-Sep-07 06:32N 32°05' W 081°04'  
Track history (hours):
 
Tides and Currents Weather Stations Pressure Air Temp Water Temp Dewpoint Dewpoint Depression Visibility Wind Speed Wind Dir Waves Ship Positions

Siteam Jupiter

Last reported at 2014-Sep-16 10:33 UTC. Time now 2014-Sep-16 11:34 UTC.
Position N 26°28' W 079°44'.

Length 181 m; draft 8.3 m.

Type: Ship (hazmat cat B). MMSI: 636091062.

Date/timePositionNaut miles runAvg speedWind from/ knotsBaromVisibWave heightAir tempDewpointWater temp
2014-Sep-16 10:33N 26°28' W 079°44'9 8.9
2014-Sep-16 09:33N 26°37' W 079°42'9 9.0
2014-Sep-16 08:33N 26°46' W 079°40'21 9.3
2014-Sep-16 06:17N 27°07' W 079°36'  
2014-Sep-13 07:26N 39°24' W 073°50'1213.2
2014-Sep-13 06:32N 39°36' W 073°49'1313.0
2014-Sep-13 05:33N 39°49' W 073°49'1313.1
2014-Sep-13 04:33N 40°02' W 073°49'1313.0
2014-Sep-13 03:33N 40°15' W 073°49'1212.1
2014-Sep-13 02:33N 40°27' W 073°50'1110.9
2014-Sep-13 01:34N 40°33' W 074°02'5 4.7
2014-Sep-13 00:31N 40°38' W 074°04'0 0.1
2014-Sep-12 23:25N 40°38' W 074°04'0 0.0
2014-Sep-12 22:31N 40°38' W 074°04'0 0.0
2014-Sep-12 21:31N 40°38' W 074°04'0 0.0
2014-Sep-12 20:28N 40°38' W 074°04'0 0.0
2014-Sep-12 19:31N 40°38' W 074°04'0 0.0
2014-Sep-12 18:31N 40°38' W 074°04'4 4.3
2014-Sep-12 17:33N 40°34' W 074°02'7 6.6
2014-Sep-12 16:33N 40°30' W 074°09'5 4.9
2014-Sep-12 15:29N 40°32' W 074°15'0 0.0
2014-Sep-12 00:19N 40°33' W 074°15'3 3.7
2014-Sep-11 23:30N 40°30' W 074°15'9 9.4
2014-Sep-11 22:31N 40°29' W 074°03'12 9.4
2014-Sep-11 21:18N 40°27' W 073°48'7 8.9
2014-Sep-11 20:31N 40°20' W 073°46'1513.4
2014-Sep-11 19:24N 40°05' W 073°44'1213.2
2014-Sep-11 18:30N 39°53' W 073°42'1213.1
2014-Sep-11 17:33N 39°41' W 073°40'1313.2
2014-Sep-11 16:33N 39°28' W 073°40'1313.2
2014-Sep-11 15:33N 39°14' W 073°40'1313.5
2014-Sep-11 14:33N 39°01' W 073°40'1313.3
2014-Sep-11 13:33N 38°48' W 073°40'1313.0
2014-Sep-11 12:33N 38°35' W 073°40'1313.3
2014-Sep-11 11:33N 38°21' W 073°40'1313.3
2014-Sep-11 10:33N 38°08' W 073°40'1313.0
2014-Sep-11 09:33N 37°55' W 073°40'1312.7
2014-Sep-11 08:32N 37°42' W 073°40'49511.8
2014-Sep-09 14:33N 32°05' W 081°03'5 4.5
2014-Sep-09 13:27N 32°07' W 081°08'0 0.0
2014-Sep-09 12:33N 32°07' W 081°08'0 0.0
2014-Sep-09 11:30N 32°07' W 081°08'0 0.0
2014-Sep-09 09:12N 32°07' W 081°08'0 0.0
2014-Sep-09 08:30N 32°07' W 081°08'0 0.0
2014-Sep-09 07:30N 32°07' W 081°08'0 0.0
2014-Sep-09 06:33N 32°07' W 081°08'0 0.0
2014-Sep-09 05:30N 32°07' W 081°08'0 0.0
2014-Sep-09 04:33N 32°07' W 081°08'0 0.0
2014-Sep-09 03:33N 32°07' W 081°08'0 0.0
2014-Sep-09 02:33N 32°07' W 081°08'0 0.0
2014-Sep-09 01:33N 32°07' W 081°08'0 0.0
2014-Sep-09 00:30N 32°07' W 081°08'0 0.0
2014-Sep-08 23:15N 32°07' W 081°08'0 0.0
2014-Sep-08 22:12N 32°07' W 081°08'0 0.0
2014-Sep-08 21:24N 32°07' W 081°08'0 0.0
2014-Sep-08 20:33N 32°07' W 081°08'0 0.0
2014-Sep-08 19:30N 32°07' W 081°08'0 0.0
2014-Sep-08 18:33N 32°07' W 081°08'0 0.0
2014-Sep-08 17:33N 32°07' W 081°08'0 0.0
2014-Sep-08 16:33N 32°07' W 081°08'0 0.0
2014-Sep-08 15:33N 32°07' W 081°08'0 0.0
2014-Sep-08 11:27N 32°07' W 081°08'0 0.0
2014-Sep-08 09:33N 32°07' W 081°08'0 0.0
2014-Sep-08 08:33N 32°07' W 081°08'0 0.0
2014-Sep-08 07:33N 32°07' W 081°08'0 0.0
2014-Sep-08 06:33N 32°07' W 081°08'0 0.0
2014-Sep-08 05:30N 32°07' W 081°08'0 0.0
2014-Sep-08 04:30N 32°07' W 081°08'0 0.0
2014-Sep-08 03:30N 32°07' W 081°08'0 0.0
2014-Sep-08 02:33N 32°07' W 081°08'0 0.0
2014-Sep-08 01:30N 32°07' W 081°08'0 0.0
2014-Sep-08 00:33N 32°07' W 081°08'0 0.0
2014-Sep-07 23:27N 32°07' W 081°08'0 0.0
2014-Sep-07 21:33N 32°07' W 081°08'0 0.0
2014-Sep-07 19:27N 32°07' W 081°08'0 0.0
2014-Sep-07 18:27N 32°07' W 081°08'0 0.0
2014-Sep-07 17:33N 32°07' W 081°08'0 0.0
2014-Sep-07 16:30N 32°07' W 081°08'0 0.0
2014-Sep-07 15:33N 32°07' W 081°08'0 0.0
2014-Sep-07 14:30N 32°07' W 081°08'0 0.0
2014-Sep-07 13:33N 32°07' W 081°08'0 0.0
2014-Sep-07 11:33N 32°07' W 081°08'0 0.0
2014-Sep-07 10:09N 32°07' W 081°08'0 0.0
2014-Sep-07 09:33N 32°07' W 081°08'0 0.0
2014-Sep-07 07:32N 32°07' W 081°08'4 4.0
2014-Sep-07 06:32N 32°05' W 081°04'  

Dump ship's entire track history